createdAt,value
2023-01-25T00:00:52.793Z,98395.81
2023-01-25T00:03:20.590Z,98385.53
2023-01-25T00:05:48.081Z,98394.53
2023-01-25T00:08:15.703Z,98388.47
2023-01-25T00:10:43.217Z,98398.78
2023-01-25T00:13:10.774Z,98390.59
2023-01-25T00:15:38.275Z,98405.94
2023-01-25T00:18:05.936Z,98398.53
2023-01-25T00:20:33.464Z,98416.00
2023-01-25T00:23:00.939Z,98396.97
2023-01-25T00:25:28.467Z,98398.81
2023-01-25T00:27:55.905Z,98399.59
2023-01-25T00:30:23.417Z,98409.91
2023-01-25T00:33:23.738Z,98401.94
2023-01-25T00:35:51.415Z,98399.81
2023-01-25T00:38:29.885Z,98402.47
2023-01-25T00:40:59.180Z,98400.88
2023-01-25T00:43:27.054Z,98390.56
2023-01-25T00:46:01.192Z,98390.25
2023-01-25T00:48:28.923Z,98393.94
2023-01-25T00:51:01.437Z,98401.66
2023-01-25T00:53:29.059Z,98387.88
2023-01-25T00:55:56.748Z,98369.63
2023-01-25T00:58:25.282Z,98373.59
2023-01-25T01:00:54.454Z,98377.59
2023-01-25T01:03:24.169Z,98378.88
2023-01-25T01:06:21.138Z,98383.38
2023-01-25T01:08:48.991Z,98389.22
2023-01-25T01:11:16.430Z,98367.31
2023-01-25T01:13:43.972Z,98390.56
2023-01-25T01:16:14.132Z,98373.63
2023-01-25T01:18:44.235Z,98383.19
2023-01-25T01:21:13.710Z,98357.78
2023-01-25T01:23:41.604Z,98375.78
2023-01-25T01:26:15.433Z,98370.22
2023-01-25T01:28:43.502Z,98373.13
2023-01-25T01:31:31.451Z,98382.38
2023-01-25T01:34:14.882Z,98373.69
2023-01-25T01:36:43.153Z,98378.16
2023-01-25T01:39:10.806Z,98373.13
2023-01-25T01:41:38.921Z,98373.66
2023-01-25T01:44:16.400Z,98370.75
2023-01-25T01:46:51.872Z,98374.97
2023-01-25T01:49:28.490Z,98361.50
2023-01-25T01:52:17.048Z,98366.53
2023-01-25T01:55:09.693Z,98354.38
2023-01-25T01:57:43.874Z,98368.63
2023-01-25T02:00:21.269Z,98359.66
2023-01-25T02:02:51.142Z,98356.22
2023-01-25T02:05:30.830Z,98355.69
2023-01-25T02:07:59.497Z,98353.06
2023-01-25T02:10:28.752Z,98360.19
2023-01-25T02:12:58.801Z,98360.97
2023-01-25T02:15:37.853Z,98360.41
2023-01-25T02:18:05.395Z,98361.78
2023-01-25T02:20:38.311Z,98368.66
2023-01-25T02:23:36.108Z,98365.47
2023-01-25T02:26:06.109Z,98351.19
2023-01-25T02:28:38.999Z,98370.50
2023-01-25T02:31:07.065Z,98357.78
2023-01-25T02:33:35.052Z,98339.25
2023-01-25T02:36:07.323Z,98357.16
2023-01-25T02:38:45.800Z,98345.53
2023-01-25T02:41:18.904Z,98348.16
2023-01-25T02:43:46.841Z,98354.00
2023-01-25T02:46:21.137Z,98346.56
2023-01-25T02:48:49.074Z,98342.31
2023-01-25T02:51:16.522Z,98344.69
2023-01-25T02:53:44.103Z,98346.84
2023-01-25T02:56:11.594Z,98339.94
2023-01-25T02:58:39.112Z,98344.13
2023-01-25T03:01:06.795Z,98343.31
2023-01-25T03:03:34.342Z,98329.28
2023-01-25T03:06:02.424Z,98331.09
2023-01-25T03:08:30.678Z,98331.38
2023-01-25T03:11:00.968Z,98342.75
2023-01-25T03:13:32.476Z,98345.66
2023-01-25T03:16:02.950Z,98352.84
2023-01-25T03:18:30.788Z,98349.19
2023-01-25T03:21:08.750Z,98360.84
2023-01-25T03:23:37.842Z,98352.91
2023-01-25T03:26:20.122Z,98357.38
2023-01-25T03:29:05.839Z,98342.59
2023-01-25T03:31:35.988Z,98350.25
2023-01-25T03:34:03.523Z,98350.00
2023-01-25T03:36:35.510Z,98348.69
2023-01-25T03:39:04.198Z,98367.22
2023-01-25T03:41:36.718Z,98364.59
2023-01-25T03:44:11.732Z,98352.13
2023-01-25T03:46:41.319Z,98367.75
2023-01-25T03:49:09.554Z,98373.88
2023-01-25T03:51:37.327Z,98364.06
2023-01-25T03:54:05.730Z,98370.66
2023-01-25T03:56:36.770Z,98371.72
2023-01-25T03:59:12.816Z,98379.06
2023-01-25T04:01:40.618Z,98382.31
2023-01-25T04:04:08.602Z,98379.66
2023-01-25T04:06:38.566Z,98383.31
2023-01-25T04:09:06.847Z,98391.78
2023-01-25T04:11:39.711Z,98386.50
2023-01-25T04:14:07.322Z,98386.22
2023-01-25T04:16:44.202Z,98380.59
2023-01-25T04:19:38.113Z,98371.06
2023-01-25T04:22:09.609Z,98387.75
2023-01-25T04:24:39.234Z,98383.47
2023-01-25T04:27:07.149Z,98390.13
2023-01-25T04:29:42.040Z,98388.50
2023-01-25T04:32:15.773Z,98379.19
2023-01-25T04:34:43.738Z,98385.53
2023-01-25T04:37:15.759Z,98400.88
2023-01-25T04:39:56.827Z,98397.47
2023-01-25T04:42:24.923Z,98393.97
2023-01-25T04:44:55.732Z,98382.13
2023-01-25T04:47:23.713Z,98403.22
2023-01-25T04:49:51.680Z,98414.91
2023-01-25T04:52:22.937Z,98414.09
2023-01-25T04:54:50.457Z,98411.72
2023-01-25T04:57:18.562Z,98415.66
2023-01-25T04:59:50.894Z,98415.47
2023-01-25T05:02:19.226Z,98407.72
2023-01-25T05:04:46.761Z,98410.41
2023-01-25T05:07:14.500Z,98406.38
2023-01-25T05:09:42.361Z,98411.63
2023-01-25T05:12:13.929Z,98412.94
2023-01-25T05:14:57.736Z,98410.38
2023-01-25T05:17:25.697Z,98411.41
2023-01-25T05:19:53.402Z,98420.38
2023-01-25T05:22:23.644Z,98424.84
2023-01-25T05:24:54.255Z,98429.69
2023-01-25T05:27:23.317Z,98442.59
2023-01-25T05:29:57.314Z,98446.00
2023-01-25T05:32:53.798Z,98423.75
2023-01-25T05:35:23.225Z,98415.03
2023-01-25T05:37:58.815Z,98429.41
2023-01-25T05:40:27.436Z,98429.34
2023-01-25T05:43:02.847Z,98415.75
2023-01-25T05:45:31.807Z,98421.06
2023-01-25T05:47:59.820Z,98438.50
2023-01-25T05:50:28.253Z,98428.47
2023-01-25T05:53:01.269Z,98440.75
2023-01-25T05:55:30.212Z,98420.97
2023-01-25T05:58:02.504Z,98423.34
2023-01-25T06:00:30.092Z,98422.38
2023-01-25T06:03:01.322Z,98423.22
2023-01-25T06:05:31.078Z,98426.84
2023-01-25T06:07:58.871Z,98426.56
2023-01-25T06:10:32.106Z,98419.91
2023-01-25T06:13:00.283Z,98429.47
2023-01-25T06:15:28.186Z,98440.56
2023-01-25T06:18:03.747Z,98425.44
2023-01-25T06:21:07.002Z,98432.81
2023-01-25T06:23:37.506Z,98436.47
2023-01-25T06:26:12.101Z,98430.03
2023-01-25T06:28:40.418Z,98430.22
2023-01-25T06:31:10.928Z,98428.03
2023-01-25T06:33:39.535Z,98437.78
2023-01-25T06:36:12.649Z,98443.50
2023-01-25T06:38:41.146Z,98441.31
2023-01-25T06:41:12.149Z,98446.03
2023-01-25T06:43:40.022Z,98443.88
2023-01-25T06:46:09.431Z,98447.00
2023-01-25T06:48:37.013Z,98448.59
2023-01-25T06:51:07.694Z,98456.34
2023-01-25T06:53:38.665Z,98449.81
2023-01-25T06:56:10.956Z,98451.63
2023-01-25T06:58:40.754Z,98448.53
2023-01-25T07:01:20.812Z,98454.56
2023-01-25T07:03:53.394Z,98473.69
2023-01-25T07:06:22.034Z,98472.88
2023-01-25T07:08:49.952Z,98472.09
2023-01-25T07:11:19.371Z,98458.59
2023-01-25T07:13:48.325Z,98480.22
2023-01-25T07:16:20.668Z,98465.13
2023-01-25T07:18:48.592Z,98482.00
2023-01-25T07:21:17.562Z,98469.22
2023-01-25T07:23:45.159Z,98468.44
2023-01-25T07:26:22.791Z,98475.75
2023-01-25T07:28:50.983Z,98469.88
2023-01-25T07:31:20.351Z,98480.66
2023-01-25T07:33:53.889Z,98472.41
2023-01-25T07:36:22.188Z,98486.94
2023-01-25T07:38:54.039Z,98475.22
2023-01-25T07:41:22.428Z,98481.34
2023-01-25T07:43:52.604Z,98487.88
2023-01-25T07:46:41.558Z,98480.09
2023-01-25T07:49:09.379Z,98476.91
2023-01-25T07:51:36.940Z,98469.16
2023-01-25T07:54:05.669Z,98470.19
2023-01-25T07:56:38.026Z,98466.88
2023-01-25T07:59:08.535Z,98463.72
2023-01-25T08:01:37.323Z,98466.59
2023-01-25T08:04:05.854Z,98467.09
2023-01-25T08:06:36.355Z,98450.56
2023-01-25T08:09:22.789Z,98469.28
2023-01-25T08:11:50.523Z,98469.63
2023-01-25T08:14:18.257Z,98464.50
2023-01-25T08:16:45.722Z,98462.66
2023-01-25T08:19:13.255Z,98462.78
2023-01-25T08:21:40.996Z,98455.22
2023-01-25T08:24:09.926Z,98471.25
2023-01-25T08:26:38.174Z,98460.06
2023-01-25T08:29:06.961Z,98458.53
2023-01-25T08:31:36.314Z,98462.66
2023-01-25T08:34:04.687Z,98453.91
2023-01-25T08:36:32.282Z,98468.78
2023-01-25T08:39:02.776Z,98466.88
2023-01-25T08:41:32.879Z,98459.56
2023-01-25T08:44:00.432Z,98448.44
2023-01-25T08:46:32.093Z,98459.84
2023-01-25T08:49:01.618Z,98457.22
2023-01-25T08:51:31.831Z,98444.78
2023-01-25T08:54:04.517Z,98441.44
2023-01-25T08:56:32.135Z,98440.94
2023-01-25T08:58:59.649Z,98444.56
2023-01-25T09:01:27.143Z,98444.03
2023-01-25T09:03:55.537Z,98424.44
2023-01-25T09:06:23.062Z,98423.09
2023-01-25T09:08:50.777Z,98411.28
2023-01-25T09:11:21.334Z,98404.84
2023-01-25T09:13:49.495Z,98428.25
2023-01-25T09:16:29.016Z,98423.28
2023-01-25T09:18:58.491Z,98408.41
2023-01-25T09:21:26.023Z,98406.13
2023-01-25T09:24:10.009Z,98399.50
2023-01-25T09:26:43.032Z,98402.81
2023-01-25T09:29:13.712Z,98386.38
2023-01-25T09:31:44.021Z,98375.31
2023-01-25T09:34:32.508Z,98385.56
2023-01-25T09:37:00.084Z,98375.63
2023-01-25T09:39:27.533Z,98382.22
2023-01-25T09:42:32.991Z,98380.22
2023-01-25T09:45:12.634Z,98384.03
2023-01-25T09:47:59.704Z,98377.25
2023-01-25T09:51:14.163Z,98378.38
2023-01-25T09:54:01.457Z,98362.44
2023-01-25T09:56:35.866Z,98354.41
2023-01-25T09:59:16.351Z,98343.41
2023-01-25T10:01:51.974Z,98357.69
2023-01-25T10:04:23.796Z,98332.78
2023-01-25T10:07:00.991Z,98345.97
2023-01-25T10:09:34.845Z,98347.41
2023-01-25T10:12:15.696Z,98340.34
2023-01-25T10:14:43.365Z,98349.16
2023-01-25T10:17:26.094Z,98351.69
2023-01-25T10:20:17.987Z,98362.59
2023-01-25T10:22:51.878Z,98364.53
2023-01-25T10:25:37.718Z,98371.03
2023-01-25T10:28:28.499Z,98360.63
2023-01-25T10:31:03.093Z,98362.22
2023-01-25T10:33:36.313Z,98359.88
2023-01-25T10:36:05.130Z,98346.31
2023-01-25T10:38:45.682Z,98348.06
2023-01-25T10:41:27.187Z,98366.09
2023-01-25T10:44:13.438Z,98359.56
2023-01-25T10:46:44.642Z,98367.84
2023-01-25T10:49:27.497Z,98363.38
2023-01-25T10:51:55.710Z,98356.28
2023-01-25T10:54:24.438Z,98364.75
2023-01-25T10:56:53.408Z,98361.81
2023-01-25T10:59:25.945Z,98374.53
2023-01-25T11:01:53.685Z,98357.59
2023-01-25T11:04:45.866Z,98367.38
2023-01-25T11:07:27.798Z,98363.53
2023-01-25T11:09:55.499Z,98367.09
2023-01-25T11:12:23.116Z,98371.66
2023-01-25T11:14:51.397Z,98381.16
2023-01-25T11:17:31.933Z,98376.38
2023-01-25T11:20:16.397Z,98378.38
2023-01-25T11:22:55.756Z,98376.84
2023-01-25T11:25:32.227Z,98389.22
2023-01-25T11:28:19.168Z,98391.06
2023-01-25T11:30:47.879Z,98387.25
2023-01-25T11:33:17.381Z,98385.84
2023-01-25T11:36:13.888Z,98379.19
2023-01-25T11:39:03.565Z,98379.38
2023-01-25T11:41:46.764Z,98381.19
2023-01-25T11:44:20.374Z,98375.63
2023-01-25T11:47:32.903Z,98375.78
2023-01-25T11:50:00.339Z,98376.34
2023-01-25T11:52:37.540Z,98389.03
2023-01-25T11:55:26.576Z,98380.16
2023-01-25T11:58:07.008Z,98360.56
2023-01-25T12:01:05.142Z,98366.19
2023-01-25T12:04:17.944Z,98338.34
2023-01-25T12:07:20.725Z,98340.19
2023-01-25T12:10:08.280Z,98346.97
2023-01-25T12:12:42.620Z,98342.56
2023-01-25T12:15:22.211Z,98342.94
2023-01-25T12:18:20.231Z,98356.00
2023-01-25T12:21:11.825Z,98352.78
2023-01-25T12:23:59.615Z,98354.44
2023-01-25T12:27:05.019Z,98353.31
2023-01-25T12:29:48.576Z,98356.59
2023-01-25T12:32:34.032Z,98358.78
2023-01-25T12:35:25.976Z,98355.16
2023-01-25T12:38:00.099Z,98353.28
2023-01-25T12:40:41.959Z,98345.41
2023-01-25T12:43:37.592Z,98353.41
2023-01-25T12:46:30.309Z,98348.94
2023-01-25T12:49:04.130Z,98345.41
2023-01-25T12:51:40.168Z,98342.00
2023-01-25T12:54:20.289Z,98342.78
2023-01-25T12:57:10.527Z,98339.63
2023-01-25T12:59:56.293Z,98344.78
2023-01-25T13:02:45.391Z,98333.66
2023-01-25T13:05:24.992Z,98329.44
2023-01-25T13:08:30.114Z,98314.66
2023-01-25T13:11:33.897Z,98337.38
2023-01-25T13:14:16.620Z,98340.31
2023-01-25T13:17:08.547Z,98341.97
2023-01-25T13:19:37.942Z,98333.84
2023-01-25T13:22:05.835Z,98329.84
2023-01-25T13:24:54.434Z,98328.84
2023-01-25T13:27:29.717Z,98326.69
2023-01-25T13:30:18.577Z,98322.56
2023-01-25T13:32:52.483Z,98320.66
2023-01-25T13:35:33.384Z,98326.47
2023-01-25T13:38:11.829Z,98325.44
2023-01-25T13:40:40.816Z,98322.59
2023-01-25T13:43:22.780Z,98331.59
2023-01-25T13:45:53.617Z,98323.66
2023-01-25T13:48:29.187Z,98323.38
2023-01-25T13:51:05.728Z,98308.84
2023-01-25T13:53:39.884Z,98309.41
2023-01-25T13:56:25.521Z,98289.28
2023-01-25T13:58:53.198Z,98308.59
2023-01-25T14:01:24.000Z,98318.63
2023-01-25T14:03:59.970Z,98305.19
2023-01-25T14:06:34.842Z,98320.22
2023-01-25T14:09:08.325Z,98312.84
2023-01-25T14:11:44.121Z,98319.19
2023-01-25T14:14:25.374Z,98323.91
2023-01-25T14:17:14.469Z,98321.00
2023-01-25T14:19:51.376Z,98298.84
2023-01-25T14:22:27.636Z,98322.34
2023-01-25T14:25:10.025Z,98310.16
2023-01-25T14:27:46.039Z,98302.53
2023-01-25T14:30:40.393Z,98300.16
2023-01-25T14:33:29.096Z,98315.97
2023-01-25T14:36:16.159Z,98321.00
2023-01-25T14:38:53.126Z,98321.03
2023-01-25T14:41:34.296Z,98319.44
2023-01-25T14:44:10.856Z,98309.44
2023-01-25T14:46:39.646Z,98315.78
2023-01-25T14:49:27.651Z,98323.72
2023-01-25T14:52:14.748Z,98324.47
2023-01-25T14:55:00.133Z,98325.50
2023-01-25T14:57:37.204Z,98334.25
2023-01-25T15:00:24.501Z,98327.91
2023-01-25T15:02:56.606Z,98306.78
2023-01-25T15:05:35.543Z,98308.88
2023-01-25T15:08:09.239Z,98302.78
2023-01-25T15:10:38.590Z,98307.28
2023-01-25T15:13:15.545Z,98296.97
2023-01-25T15:15:58.772Z,98306.28
2023-01-25T15:18:52.624Z,98307.56
2023-01-25T15:21:26.195Z,98291.44
2023-01-25T15:23:55.735Z,98279.28
2023-01-25T15:26:31.135Z,98282.72
2023-01-25T15:29:16.769Z,98288.28
2023-01-25T15:31:44.826Z,98297.53
2023-01-25T15:34:26.119Z,98308.13
2023-01-25T15:36:54.349Z,98291.72
2023-01-25T15:39:22.238Z,98282.47
2023-01-25T15:41:50.161Z,98288.56
2023-01-25T15:44:20.457Z,98278.78
2023-01-25T15:46:51.243Z,98259.25
2023-01-25T15:49:25.990Z,98265.28
2023-01-25T15:51:55.179Z,98266.34
2023-01-25T15:54:23.933Z,98266.34
2023-01-25T15:56:55.900Z,98268.72
2023-01-25T15:59:23.686Z,98275.84
2023-01-25T16:01:51.400Z,98269.50
2023-01-25T16:04:19.131Z,98276.63
2023-01-25T16:06:53.042Z,98272.69
2023-01-25T16:09:30.155Z,98280.84
2023-01-25T16:11:59.724Z,98271.63
2023-01-25T16:14:30.603Z,98267.69
2023-01-25T16:17:02.121Z,98265.28
2023-01-25T16:19:30.453Z,98262.41
2023-01-25T16:21:58.381Z,98257.66
2023-01-25T16:24:26.171Z,98262.41
2023-01-25T16:27:03.709Z,98232.25
2023-01-25T16:29:37.723Z,98252.88
2023-01-25T16:32:05.371Z,98261.31
2023-01-25T16:34:32.888Z,98254.72
2023-01-25T16:37:02.065Z,98244.66
2023-01-25T16:39:29.624Z,98226.72
2023-01-25T16:41:59.792Z,98233.03
2023-01-25T16:44:27.536Z,98232.50
2023-01-25T16:46:55.845Z,98234.38
2023-01-25T16:49:28.429Z,98234.88
2023-01-25T16:52:00.391Z,98234.09
2023-01-25T16:54:28.260Z,98225.41
2023-01-25T16:56:59.035Z,98223.84
2023-01-25T16:59:27.979Z,98220.13
2023-01-25T17:01:56.489Z,98225.13
2023-01-25T17:04:24.355Z,98207.97
2023-01-25T17:06:53.520Z,98213.53
2023-01-25T17:09:24.088Z,98204.53
2023-01-25T17:11:56.327Z,98201.63
2023-01-25T17:14:24.094Z,98182.88
2023-01-25T17:16:55.340Z,98181.56
2023-01-25T17:19:28.868Z,98198.47
2023-01-25T17:22:01.807Z,98191.59
2023-01-25T17:24:31.856Z,98185.78
2023-01-25T17:27:01.339Z,98178.94
2023-01-25T17:29:32.786Z,98180.25
2023-01-25T17:32:00.466Z,98179.69
2023-01-25T17:34:28.062Z,98172.59
2023-01-25T17:36:55.877Z,98169.94
2023-01-25T17:39:23.535Z,98157.53
2023-01-25T17:41:52.037Z,98155.41
2023-01-25T17:44:22.121Z,98159.09
2023-01-25T17:46:51.678Z,98157.75
2023-01-25T17:49:19.836Z,98167.56
2023-01-25T17:51:47.407Z,98154.59
2023-01-25T17:54:15.391Z,98146.94
2023-01-25T17:56:42.949Z,98145.38
2023-01-25T17:59:11.892Z,98145.34
2023-01-25T18:01:40.239Z,98148.25
2023-01-25T18:04:08.937Z,98145.88
2023-01-25T18:06:37.007Z,98150.91
2023-01-25T18:09:06.851Z,98149.56
2023-01-25T18:11:35.768Z,98148.00
2023-01-25T18:14:09.554Z,98151.69
2023-01-25T18:16:39.519Z,98149.56
2023-01-25T18:19:08.414Z,98163.31
2023-01-25T18:21:36.492Z,98159.63
2023-01-25T18:24:08.156Z,98153.81
2023-01-25T18:26:37.388Z,98151.97
2023-01-25T18:29:11.083Z,98145.09
2023-01-25T18:31:38.801Z,98141.41
2023-01-25T18:34:06.317Z,98139.56
2023-01-25T18:36:34.056Z,98129.28
2023-01-25T18:39:01.764Z,98135.09
2023-01-25T18:41:29.339Z,98134.56
2023-01-25T18:43:57.076Z,98140.09
2023-01-25T18:46:24.709Z,98128.50
2023-01-25T18:48:53.697Z,98140.63
2023-01-25T18:51:23.467Z,98135.59
2023-01-25T18:53:51.462Z,98144.09
2023-01-25T18:56:21.795Z,98151.19
2023-01-25T18:58:51.281Z,98139.31
2023-01-25T19:01:23.268Z,98157.00
2023-01-25T19:03:55.875Z,98122.69
2023-01-25T19:06:28.858Z,98126.91
2023-01-25T19:08:57.468Z,98137.19
2023-01-25T19:11:25.001Z,98149.88
2023-01-25T19:13:52.482Z,98133.53
2023-01-25T19:16:24.675Z,98150.16
2023-01-25T19:18:54.626Z,98140.91
2023-01-25T19:21:28.057Z,98149.59
2023-01-25T19:23:56.683Z,98146.44
2023-01-25T19:26:25.941Z,98155.41
2023-01-25T19:28:54.320Z,98143.50
2023-01-25T19:31:24.158Z,98135.06
2023-01-25T19:33:56.915Z,98138.50
2023-01-25T19:36:24.440Z,98127.66
2023-01-25T19:38:51.959Z,98130.03
2023-01-25T19:41:25.324Z,98129.47
2023-01-25T19:44:03.560Z,98112.06
2023-01-25T19:46:33.168Z,98107.31
2023-01-25T19:49:02.423Z,98116.88
2023-01-25T19:51:35.540Z,98106.53
2023-01-25T19:54:06.710Z,98107.59
2023-01-25T19:56:36.858Z,98098.31
2023-01-25T19:59:07.427Z,98116.28
2023-01-25T20:01:37.470Z,98104.88
2023-01-25T20:04:08.267Z,98094.81
2023-01-25T20:06:35.948Z,98083.94
2023-01-25T20:09:03.707Z,98093.72
2023-01-25T20:11:33.114Z,98079.16
2023-01-25T20:14:03.910Z,98081.56
2023-01-25T20:16:33.389Z,98064.91
2023-01-25T20:19:02.393Z,98069.16
2023-01-25T20:21:31.686Z,98077.31
2023-01-25T20:24:04.154Z,98070.72
2023-01-25T20:26:34.690Z,98063.84
2023-01-25T20:29:02.338Z,98068.03
2023-01-25T20:31:38.328Z,98064.34
2023-01-25T20:34:10.227Z,98062.53
2023-01-25T20:36:37.896Z,98049.94
2023-01-25T20:39:06.991Z,98061.56
2023-01-25T20:41:35.886Z,98051.53
2023-01-25T20:44:11.502Z,98040.34
2023-01-25T20:46:40.865Z,98028.16
2023-01-25T20:49:11.565Z,98047.13
2023-01-25T20:51:40.174Z,98038.19
2023-01-25T20:54:07.721Z,98047.63
2023-01-25T20:56:36.794Z,98037.63
2023-01-25T20:59:04.510Z,98051.34
2023-01-25T21:01:37.557Z,98044.22
2023-01-25T21:04:08.234Z,98045.81
2023-01-25T21:06:36.247Z,98033.16
2023-01-25T21:09:04.511Z,98030.50
2023-01-25T21:11:32.626Z,98017.31
2023-01-25T21:14:00.210Z,98013.63
2023-01-25T21:16:28.181Z,98016.28
2023-01-25T21:18:58.226Z,98018.38
2023-01-25T21:21:28.526Z,98028.72
2023-01-25T21:24:00.426Z,98021.34
2023-01-25T21:26:33.063Z,98016.53
2023-01-25T21:29:06.710Z,98012.81
2023-01-25T21:31:39.552Z,97994.84
2023-01-25T21:34:08.576Z,97991.94
2023-01-25T21:36:36.134Z,97979.56
2023-01-25T21:39:03.805Z,97989.63
2023-01-25T21:41:33.932Z,97989.84
2023-01-25T21:44:20.629Z,97981.13
2023-01-25T21:49:54.097Z,97979.84
2023-01-25T21:52:21.595Z,97986.16
2023-01-25T21:54:49.125Z,97988.81
2023-01-25T21:57:16.821Z,97990.66
2023-01-25T21:59:44.323Z,97996.47
2023-01-25T22:02:15.106Z,97996.47
2023-01-25T22:04:42.811Z,97992.78
2023-01-25T22:07:12.136Z,98002.03
2023-01-25T22:09:39.728Z,98008.63
2023-01-25T22:12:07.520Z,98003.88
2023-01-25T22:14:35.236Z,97998.84
2023-01-25T22:17:03.502Z,97997.28
2023-01-25T22:19:30.986Z,97994.34
2023-01-25T22:21:58.464Z,97998.84
2023-01-25T22:24:26.160Z,98002.56
2023-01-25T22:27:09.004Z,97994.84
2023-01-25T22:29:36.565Z,97968.72
2023-01-25T22:32:04.373Z,97970.56
2023-01-25T22:34:31.925Z,97961.78
2023-01-25T22:36:59.447Z,97952.28
2023-01-25T22:39:27.545Z,97937.41
2023-01-25T22:41:56.672Z,97930.34
2023-01-25T22:44:24.172Z,97937.13
2023-01-25T22:46:53.166Z,97922.06
2023-01-25T22:49:20.778Z,97926.56
2023-01-25T22:51:48.303Z,97918.56
2023-01-25T22:54:15.750Z,97933.34
2023-01-25T22:56:43.304Z,97930.72
2023-01-25T22:59:15.035Z,97918.22
2023-01-25T23:01:42.529Z,97917.97
2023-01-25T23:04:10.216Z,97914.84
2023-01-25T23:06:38.352Z,97923.81
2023-01-25T23:09:15.842Z,97910.31
2023-01-25T23:11:43.804Z,97905.78
2023-01-25T23:14:31.269Z,97901.78
2023-01-25T23:17:17.180Z,97885.44
2023-01-25T23:19:45.140Z,97886.22
2023-01-25T23:22:12.946Z,97874.56
2023-01-25T23:24:40.557Z,97871.63
2023-01-25T23:27:08.149Z,97864.00
2023-01-25T23:29:35.661Z,97862.59
2023-01-25T23:32:03.176Z,97866.31
2023-01-25T23:34:35.088Z,97850.59
2023-01-25T23:37:02.669Z,97868.16
2023-01-25T23:39:30.253Z,97857.31
2023-01-25T23:41:57.803Z,97861.03
2023-01-25T23:44:25.361Z,97845.69
2023-01-25T23:46:52.877Z,97837.25
2023-01-25T23:49:20.560Z,97830.91
2023-01-25T23:51:48.037Z,97829.47
2023-01-25T23:54:15.708Z,97834.50
2023-01-25T23:56:43.368Z,97826.81
2023-01-25T23:59:10.999Z,97831.31
